sensor_id;sensor_type;location;lat;lon;timestamp;pressure;altitude;pressure_sealevel;temperature;humidity
48390;BME280;34643;47.964;7.982;2023-02-02T00:00:29;97621.34;;;16.67;57.75
48390;BME280;34643;47.964;7.982;2023-02-02T00:05:29;97622.25;;;16.66;57.63
48390;BME280;34643;47.964;7.982;2023-02-02T00:10:29;97631.88;;;16.65;57.64
48390;BME280;34643;47.964;7.982;2023-02-02T00:15:30;97618.75;;;16.67;57.72
48390;BME280;34643;47.964;7.982;2023-02-02T00:20:30;97626.56;;;16.67;57.81
48390;BME280;34643;47.964;7.982;2023-02-02T00:25:33;97616.97;;;16.67;57.75
48390;BME280;34643;47.964;7.982;2023-02-02T00:30:34;97598.72;;;16.67;57.81
48390;BME280;34643;47.964;7.982;2023-02-02T00:35:34;97631.69;;;16.68;57.67
48390;BME280;34643;47.964;7.982;2023-02-02T00:40:34;97634.28;;;16.68;57.77
48390;BME280;34643;47.964;7.982;2023-02-02T00:45:35;97635.03;;;16.70;57.55
48390;BME280;34643;47.964;7.982;2023-02-02T00:50:35;97633.34;;;16.69;57.76
48390;BME280;34643;47.964;7.982;2023-02-02T00:55:36;97634.22;;;16.70;57.68
48390;BME280;34643;47.964;7.982;2023-02-02T01:00:36;97646.22;;;16.72;57.71
48390;BME280;34643;47.964;7.982;2023-02-02T01:05:36;97634.88;;;16.73;57.62
48390;BME280;34643;47.964;7.982;2023-02-02T01:10:37;97630.66;;;16.71;57.87
48390;BME280;34643;47.964;7.982;2023-02-02T01:15:37;97637.75;;;16.69;57.64
48390;BME280;34643;47.964;7.982;2023-02-02T01:20:37;97647.41;;;16.67;57.73
48390;BME280;34643;47.964;7.982;2023-02-02T01:25:38;97655.25;;;16.67;57.48
48390;BME280;34643;47.964;7.982;2023-02-02T01:30:38;97655.25;;;16.67;57.57
48390;BME280;34643;47.964;7.982;2023-02-02T01:35:44;97656.16;;;16.66;57.58
48390;BME280;34643;47.964;7.982;2023-02-02T01:40:55;97657.09;;;16.65;57.32
48390;BME280;34643;47.964;7.982;2023-02-02T01:45:57;97666.56;;;16.66;57.22
48390;BME280;34643;47.964;7.982;2023-02-02T01:50:59;97659.72;;;16.65;57.26
48390;BME280;34643;47.964;7.982;2023-02-02T01:56:02;97662.31;;;16.65;57.28
48390;BME280;34643;47.964;7.982;2023-02-02T02:01:05;97639.94;;;16.61;57.03
48390;BME280;34643;47.964;7.982;2023-02-02T02:06:09;97633.81;;;16.62;57.22
48390;BME280;34643;47.964;7.982;2023-02-02T02:11:10;97626.00;;;16.62;57.17
48390;BME280;34643;47.964;7.982;2023-02-02T02:21:36;97641.72;;;16.60;57.09
48390;BME280;34643;47.964;7.982;2023-02-02T02:32:42;97628.84;;;16.57;57.02
48390;BME280;34643;47.964;7.982;2023-02-02T02:42:50;97609.03;;;16.54;57.03
48390;BME280;34643;47.964;7.982;2023-02-02T02:47:52;97614.25;;;16.54;57.08
48390;BME280;34643;47.964;7.982;2023-02-02T02:53:15;97617.69;;;16.55;56.88
48390;BME280;34643;47.964;7.982;2023-02-02T03:03:18;97616.94;;;16.53;56.84
48390;BME280;34643;47.964;7.982;2023-02-02T03:13:29;97619.63;;;16.51;57.10
48390;BME280;34643;47.964;7.982;2023-02-02T03:18:30;97613.50;;;16.52;56.92
48390;BME280;34643;47.964;7.982;2023-02-02T03:23:32;97616.09;;;16.52;56.92
48390;BME280;34643;47.964;7.982;2023-02-02T03:28:32;97622.16;;;16.53;56.74
48390;BME280;34643;47.964;7.982;2023-02-02T03:33:34;97628.19;;;16.53;56.75
48390;BME280;34643;47.964;7.982;2023-02-02T03:38:35;97635.09;;;16.54;56.92
48390;BME280;34643;47.964;7.982;2023-02-02T03:43:35;97636.94;;;16.52;56.85
48390;BME280;34643;47.964;7.982;2023-02-02T03:48:36;97639.34;;;16.56;56.96
48390;BME280;34643;47.964;7.982;2023-02-02T03:53:38;97627.28;;;16.54;56.78
48390;BME280;34643;47.964;7.982;2023-02-02T03:58:38;97636.00;;;16.53;56.73
48390;BME280;34643;47.964;7.982;2023-02-02T04:03:39;97642.16;;;16.52;56.93
48390;BME280;34643;47.964;7.982;2023-02-02T04:08:39;97650.81;;;16.53;56.69
48390;BME280;34643;47.964;7.982;2023-02-02T04:13:39;97643.81;;;16.53;56.89
48390;BME280;34643;47.964;7.982;2023-02-02T04:18:42;97648.28;;;16.51;56.64
48390;BME280;34643;47.964;7.982;2023-02-02T04:23:42;97640.47;;;16.51;56.64
48390;BME280;34643;47.964;7.982;2023-02-02T04:28:42;97631.00;;;16.50;56.68
48390;BME280;34643;47.964;7.982;2023-02-02T04:33:43;97625.84;;;16.49;56.69
48390;BME280;34643;47.964;7.982;2023-02-02T04:38:43;97640.47;;;16.51;56.88
48390;BME280;34643;47.964;7.982;2023-02-02T04:43:43;97636.19;;;16.50;56.58
48390;BME280;34643;47.964;7.982;2023-02-02T04:48:46;97641.41;;;16.50;56.84
48390;BME280;34643;47.964;7.982;2023-02-02T04:53:46;97643.16;;;16.50;56.65
48390;BME280;34643;47.964;7.982;2023-02-02T04:58:47;97649.22;;;16.50;56.81
48390;BME280;34643;47.964;7.982;2023-02-02T05:03:47;97643.25;;;16.48;56.54
48390;BME280;34643;47.964;7.982;2023-02-02T05:08:48;97649.13;;;16.52;56.57
48390;BME280;34643;47.964;7.982;2023-02-02T05:13:49;97650.06;;;16.51;56.85
48390;BME280;34643;47.964;7.982;2023-02-02T05:18:51;97655.28;;;16.51;56.75
48390;BME280;34643;47.964;7.982;2023-02-02T05:23:51;97659.66;;;16.50;56.69
48390;BME280;34643;47.964;7.982;2023-02-02T05:28:51;97657.19;;;16.63;56.99
48390;BME280;34643;47.964;7.982;2023-02-02T05:33:52;97666.91;;;16.76;56.47
48390;BME280;34643;47.964;7.982;2023-02-02T05:38:52;97660.78;;;14.98;48.28
48390;BME280;34643;47.964;7.982;2023-02-02T05:43:52;97664.66;;;14.18;46.12
48390;BME280;34643;47.964;7.982;2023-02-02T05:48:53;97672.78;;;14.30;45.30
48390;BME280;34643;47.964;7.982;2023-02-02T05:53:53;97673.50;;;14.87;47.10
48390;BME280;34643;47.964;7.982;2023-02-02T05:58:53;97666.44;;;15.73;48.67
48390;BME280;34643;47.964;7.982;2023-02-02T06:03:54;97663.72;;;15.92;48.95
48390;BME280;34643;47.964;7.982;2023-02-02T06:08:54;97675.47;;;16.00;49.29
48390;BME280;34643;47.964;7.982;2023-02-02T06:13:54;97674.47;;;16.02;49.71
48390;BME280;34643;47.964;7.982;2023-02-02T06:18:55;97676.16;;;16.03;50.18
48390;BME280;34643;47.964;7.982;2023-02-02T06:23:56;97679.50;;;16.05;50.54
48390;BME280;34643;47.964;7.982;2023-02-02T06:28:56;97679.50;;;16.05;50.89
48390;BME280;34643;47.964;7.982;2023-02-02T06:33:57;97675.31;;;16.03;51.07
48390;BME280;34643;47.964;7.982;2023-02-02T06:38:57;97683.13;;;16.03;51.35
48390;BME280;34643;47.964;7.982;2023-02-02T06:43:58;97689.19;;;16.03;51.47
48390;BME280;34643;47.964;7.982;2023-02-02T06:48:58;97694.53;;;16.00;51.72
48390;BME280;34643;47.964;7.982;2023-02-02T06:53:58;97700.69;;;15.99;51.91
48390;BME280;34643;47.964;7.982;2023-02-02T06:58:59;97692.97;;;15.98;51.90
48390;BME280;34643;47.964;7.982;2023-02-02T07:03:59;97707.72;;;15.97;51.98
48390;BME280;34643;47.964;7.982;2023-02-02T07:08:59;97718.31;;;15.94;52.26
48390;BME280;34643;47.964;7.982;2023-02-02T07:14:00;97715.66;;;15.95;52.43
48390;BME280;34643;47.964;7.982;2023-02-02T07:19:00;97713.19;;;15.92;52.53
48390;BME280;34643;47.964;7.982;2023-02-02T07:24:03;97711.50;;;15.91;52.45
48390;BME280;34643;47.964;7.982;2023-02-02T07:29:04;97714.19;;;15.90;52.68
48390;BME280;34643;47.964;7.982;2023-02-02T07:34:04;97727.19;;;15.90;52.60
48390;BME280;34643;47.964;7.982;2023-02-02T07:39:05;97727.38;;;15.87;52.70
48390;BME280;34643;47.964;7.982;2023-02-02T07:44:09;97731.84;;;15.85;52.80
48390;BME280;34643;47.964;7.982;2023-02-02T07:49:11;97732.66;;;15.85;53.03
48390;BME280;34643;47.964;7.982;2023-02-02T07:54:13;97732.75;;;15.84;52.90
48390;BME280;34643;47.964;7.982;2023-02-02T07:59:14;97728.56;;;15.81;53.08
48390;BME280;34643;47.964;7.982;2023-02-02T08:04:14;97720.06;;;15.77;53.23
48390;BME280;34643;47.964;7.982;2023-02-02T08:09:15;97725.28;;;15.77;53.07
48390;BME280;34643;47.964;7.982;2023-02-02T08:14:15;97734.91;;;15.75;53.07
48390;BME280;34643;47.964;7.982;2023-02-02T08:19:15;97725.47;;;15.73;53.29
48390;BME280;34643;47.964;7.982;2023-02-02T08:24:15;97728.91;;;15.73;53.25
48390;BME280;34643;47.964;7.982;2023-02-02T08:29:16;97719.44;;;15.72;53.42
48390;BME280;34643;47.964;7.982;2023-02-02T08:34:16;97719.59;;;15.69;53.38
48390;BME280;34643;47.964;7.982;2023-02-02T08:39:16;97714.38;;;15.69;53.57
48390;BME280;34643;47.964;7.982;2023-02-02T08:44:17;97724.94;;;15.66;53.29
48390;BME280;34643;47.964;7.982;2023-02-02T08:49:17;97735.44;;;15.65;53.52
48390;BME280;34643;47.964;7.982;2023-02-02T08:54:17;97733.69;;;15.65;53.37
48390;BME280;34643;47.964;7.982;2023-02-02T08:59:18;97745.91;;;15.63;53.53
48390;BME280;34643;47.964;7.982;2023-02-02T09:04:18;97752.13;;;15.61;53.60
48390;BME280;34643;47.964;7.982;2023-02-02T09:09:18;97754.88;;;15.57;53.46
48390;BME280;34643;47.964;7.982;2023-02-02T09:14:19;97770.50;;;15.57;53.68
48390;BME280;34643;47.964;7.982;2023-02-02T09:19:19;97775.78;;;15.56;53.51
48390;BME280;34643;47.964;7.982;2023-02-02T09:24:19;97781.84;;;15.56;53.51
48390;BME280;34643;47.964;7.982;2023-02-02T09:29:20;97781.06;;;15.54;53.49
48390;BME280;34643;47.964;7.982;2023-02-02T09:34:20;97782.91;;;15.52;53.58
48390;BME280;34643;47.964;7.982;2023-02-02T09:39:20;97801.97;;;15.53;53.58
48390;BME280;34643;47.964;7.982;2023-02-02T09:54:41;97833.34;;;15.50;53.55
48390;BME280;34643;47.964;7.982;2023-02-02T09:59:42;97830.91;;;15.47;53.67
48390;BME280;34643;47.964;7.982;2023-02-02T10:04:44;97829.22;;;15.46;53.68
48390;BME280;34643;47.964;7.982;2023-02-02T10:09:55;97824.94;;;15.45;53.61
48390;BME280;34643;47.964;7.982;2023-02-02T10:25:37;97840.69;;;15.42;53.65
48390;BME280;34643;47.964;7.982;2023-02-02T10:30:44;97826.09;;;15.39;53.69
48390;BME280;34643;47.964;7.982;2023-02-02T10:35:50;97858.13;;;15.39;53.56
48390;BME280;34643;47.964;7.982;2023-02-02T10:40:58;97838.34;;;15.37;53.84
48390;BME280;34643;47.964;7.982;2023-02-02T10:46:02;97841.00;;;15.35;53.69
48390;BME280;34643;47.964;7.982;2023-02-02T10:56:16;97841.00;;;15.35;53.72
48390;BME280;34643;47.964;7.982;2023-02-02T11:01:17;97842.78;;;15.35;53.73
48390;BME280;34643;47.964;7.982;2023-02-02T11:06:21;97841.91;;;15.34;53.73
48390;BME280;34643;47.964;7.982;2023-02-02T11:11:40;97853.31;;;15.32;53.73
48390;BME280;34643;47.964;7.982;2023-02-02T11:16:42;97854.09;;;15.34;53.71
48390;BME280;34643;47.964;7.982;2023-02-02T11:21:45;97845.53;;;15.32;53.84
48390;BME280;34643;47.964;7.982;2023-02-02T11:26:54;97829.91;;;15.32;53.70
48390;BME280;34643;47.964;7.982;2023-02-02T11:31:55;97823.00;;;15.31;53.77
48390;BME280;34643;47.964;7.982;2023-02-02T11:37:18;97815.34;;;15.28;53.90
48390;BME280;34643;47.964;7.982;2023-02-02T11:42:22;97804.88;;;15.29;53.85
48390;BME280;34643;47.964;7.982;2023-02-02T11:47:25;97810.56;;;15.37;53.57
48390;BME280;34643;47.964;7.982;2023-02-02T11:52:27;97814.06;;;15.36;53.68
48390;BME280;34643;47.964;7.982;2023-02-02T11:57:29;97807.63;;;15.44;53.44
48390;BME280;34643;47.964;7.982;2023-02-02T12:02:30;97802.06;;;15.51;53.38
48390;BME280;34643;47.964;7.982;2023-02-02T12:07:31;97803.19;;;15.63;53.23
48390;BME280;34643;47.964;7.982;2023-02-02T12:17:36;97825.94;;;15.77;53.07
48390;BME280;34643;47.964;7.982;2023-02-02T12:43:17;97812.06;;;15.94;53.35
48390;BME280;34643;47.964;7.982;2023-02-02T12:53:55;97798.09;;;15.95;53.37
48390;BME280;34643;47.964;7.982;2023-02-02T13:09:22;97809.13;;;16.00;53.50
48390;BME280;34643;47.964;7.982;2023-02-02T13:14:35;97813.50;;;16.00;53.49
48390;BME280;34643;47.964;7.982;2023-02-02T13:19:40;97819.47;;;16.02;53.50
48390;BME280;34643;47.964;7.982;2023-02-02T13:24:41;97803.00;;;16.01;53.59
48390;BME280;34643;47.964;7.982;2023-02-02T13:29:44;97809.97;;;16.01;53.48
48390;BME280;34643;47.964;7.982;2023-02-02T13:40:14;97806.28;;;16.05;53.64
48390;BME280;34643;47.964;7.982;2023-02-02T13:50:25;97812.25;;;16.07;53.62
48390;BME280;34643;47.964;7.982;2023-02-02T14:00:48;97823.50;;;16.07;53.57
48390;BME280;34643;47.964;7.982;2023-02-02T14:06:01;97825.19;;;16.08;53.64
48390;BME280;34643;47.964;7.982;2023-02-02T14:11:03;97828.78;;;17.03;53.98
48390;BME280;34643;47.964;7.982;2023-02-02T14:16:05;97839.81;;;17.68;53.79
48390;BME280;34643;47.964;7.982;2023-02-02T14:21:06;97841.81;;;17.19;53.96
48390;BME280;34643;47.964;7.982;2023-02-02T14:26:07;97852.50;;;16.50;53.97
48390;BME280;34643;47.964;7.982;2023-02-02T14:31:28;97852.13;;;16.25;54.52
48390;BME280;34643;47.964;7.982;2023-02-02T14:36:30;97863.03;;;16.15;54.31
48390;BME280;34643;47.964;7.982;2023-02-02T14:41:34;97872.69;;;16.13;54.48
48390;BME280;34643;47.964;7.982;2023-02-02T14:46:57;97879.69;;;16.29;54.47
48390;BME280;34643;47.964;7.982;2023-02-02T14:51:59;97872.75;;;16.45;54.24
48390;BME280;34643;47.964;7.982;2023-02-02T14:57:22;97874.19;;;16.51;54.06
48390;BME280;34643;47.964;7.982;2023-02-02T15:02:29;97872.81;;;16.28;54.31
48390;BME280;34643;47.964;7.982;2023-02-02T15:17:33;97886.53;;;16.14;54.50
48390;BME280;34643;47.964;7.982;2023-02-02T15:22:49;97891.66;;;16.15;54.35
48390;BME280;34643;47.964;7.982;2023-02-02T15:27:57;97893.59;;;16.12;54.33
48390;BME280;34643;47.964;7.982;2023-02-02T15:33:00;97893.59;;;16.12;54.40
48390;BME280;34643;47.964;7.982;2023-02-02T15:38:05;97886.75;;;16.09;54.33
48390;BME280;34643;47.964;7.982;2023-02-02T15:43:06;97891.28;;;16.06;54.45
48390;BME280;34643;47.964;7.982;2023-02-02T15:53:23;97904.50;;;16.03;54.50
48390;BME280;34643;47.964;7.982;2023-02-02T15:58:28;97910.69;;;16.00;54.54
48390;BME280;34643;47.964;7.982;2023-02-02T16:03:31;97921.97;;;16.01;54.45
48390;BME280;34643;47.964;7.982;2023-02-02T16:08:33;97921.25;;;15.97;54.40
48390;BME280;34643;47.964;7.982;2023-02-02T16:13:35;97925.69;;;15.95;54.46
48390;BME280;34643;47.964;7.982;2023-02-02T16:18:36;97929.22;;;15.94;54.40
48390;BME280;34643;47.964;7.982;2023-02-02T16:23:37;97932.81;;;15.91;54.66
48390;BME280;34643;47.964;7.982;2023-02-02T16:28:37;97942.53;;;15.88;54.49
48390;BME280;34643;47.964;7.982;2023-02-02T16:33:42;97945.22;;;15.86;54.48
48390;BME280;34643;47.964;7.982;2023-02-02T16:38:43;97959.78;;;15.90;54.25
48390;BME280;34643;47.964;7.982;2023-02-02T16:43:43;97964.31;;;15.87;54.32
48390;BME280;34643;47.964;7.982;2023-02-02T16:48:57;97954.81;;;15.86;54.34
48390;BME280;34643;47.964;7.982;2023-02-02T16:54:10;97955.63;;;15.86;54.34
48390;BME280;34643;47.964;7.982;2023-02-02T17:04:46;97962.16;;;15.77;54.63
48390;BME280;34643;47.964;7.982;2023-02-02T17:09:47;97983.81;;;15.78;54.63
48390;BME280;34643;47.964;7.982;2023-02-02T17:14:52;97994.38;;;15.75;54.81
48390;BME280;34643;47.964;7.982;2023-02-02T17:19:53;97992.66;;;15.74;54.79
48390;BME280;34643;47.964;7.982;2023-02-02T17:24:53;98009.28;;;15.71;54.61
48390;BME280;34643;47.964;7.982;2023-02-02T17:29:53;98012.94;;;15.67;54.79
48390;BME280;34643;47.964;7.982;2023-02-02T17:34:54;98013.09;;;15.64;54.66
48390;BME280;34643;47.964;7.982;2023-02-02T17:39:54;98024.31;;;15.65;54.41
48390;BME280;34643;47.964;7.982;2023-02-02T17:44:55;98023.50;;;15.64;54.53
48390;BME280;34643;47.964;7.982;2023-02-02T17:49:55;98027.09;;;15.62;54.58
48390;BME280;34643;47.964;7.982;2023-02-02T17:54:56;98040.94;;;15.62;54.35
48390;BME280;34643;47.964;7.982;2023-02-02T17:59:56;98048.97;;;15.76;54.47
48390;BME280;34643;47.964;7.982;2023-02-02T18:04:56;98047.66;;;16.04;54.71
48390;BME280;34643;47.964;7.982;2023-02-02T18:09:57;98056.59;;;15.99;55.13
48390;BME280;34643;47.964;7.982;2023-02-02T18:14:57;98060.75;;;16.03;55.97
48390;BME280;34643;47.964;7.982;2023-02-02T18:19:57;98068.56;;;16.20;56.36
48390;BME280;34643;47.964;7.982;2023-02-02T18:24:58;98055.03;;;16.31;56.43
48390;BME280;34643;47.964;7.982;2023-02-02T18:29:58;98058.22;;;16.36;56.40
48390;BME280;34643;47.964;7.982;2023-02-02T18:34:58;98051.50;;;16.32;56.80
48390;BME280;34643;47.964;7.982;2023-02-02T18:39:59;98052.19;;;16.35;57.24
48390;BME280;34643;47.964;7.982;2023-02-02T18:44:59;98047.50;;;16.42;57.06
48390;BME280;34643;47.964;7.982;2023-02-02T18:50:00;98042.84;;;16.49;57.27
48390;BME280;34643;47.964;7.982;2023-02-02T18:55:00;98046.34;;;16.48;57.50
48390;BME280;34643;47.964;7.982;2023-02-02T19:00:01;98042.28;;;16.42;57.71
48390;BME280;34643;47.964;7.982;2023-02-02T19:05:01;98041.59;;;16.56;57.64
48390;BME280;34643;47.964;7.982;2023-02-02T19:10:20;98042.09;;;16.63;57.67
48390;BME280;34643;47.964;7.982;2023-02-02T19:15:21;98064.72;;;16.62;57.98
48390;BME280;34643;47.964;7.982;2023-02-02T19:20:23;98063.06;;;16.61;57.90
48390;BME280;34643;47.964;7.982;2023-02-02T19:25:23;98057.44;;;16.69;57.96
48390;BME280;34643;47.964;7.982;2023-02-02T19:30:24;98064.44;;;16.68;58.24
48390;BME280;34643;47.964;7.982;2023-02-02T19:35:24;98077.41;;;16.70;58.29
48390;BME280;34643;47.964;7.982;2023-02-02T19:40:25;98077.28;;;16.71;58.50
48390;BME280;34643;47.964;7.982;2023-02-02T19:45:26;98084.06;;;16.58;58.99
48390;BME280;34643;47.964;7.982;2023-02-02T19:50:31;98087.50;;;16.59;58.58
48390;BME280;34643;47.964;7.982;2023-02-02T19:55:35;98091.81;;;16.60;58.78
48390;BME280;34643;47.964;7.982;2023-02-02T20:00:36;98091.97;;;16.57;58.85
48390;BME280;34643;47.964;7.982;2023-02-02T20:05:38;98103.06;;;16.60;58.82
48390;BME280;34643;47.964;7.982;2023-02-02T20:10:41;98114.34;;;16.61;58.84
48390;BME280;34643;47.964;7.982;2023-02-02T20:15:42;98104.09;;;16.58;58.86
48390;BME280;34643;47.964;7.982;2023-02-02T20:20:43;98098.94;;;16.56;59.09
48390;BME280;34643;47.964;7.982;2023-02-02T20:25:45;98096.34;;;16.56;59.08
48390;BME280;34643;47.964;7.982;2023-02-02T20:30:45;98087.44;;;16.60;59.15
48390;BME280;34643;47.964;7.982;2023-02-02T20:35:46;98082.91;;;16.64;59.26
48390;BME280;34643;47.964;7.982;2023-02-02T20:40:46;98077.69;;;16.64;59.22
48390;BME280;34643;47.964;7.982;2023-02-02T20:45:47;98078.78;;;16.60;59.41
48390;BME280;34643;47.964;7.982;2023-02-02T20:50:48;98072.34;;;16.67;59.42
48390;BME280;34643;47.964;7.982;2023-02-02T20:55:48;98079.13;;;16.69;59.19
48390;BME280;34643;47.964;7.982;2023-02-02T21:00:49;98080.00;;;16.70;58.93
48390;BME280;34643;47.964;7.982;2023-02-02T21:05:49;98082.59;;;16.70;59.23
48390;BME280;34643;47.964;7.982;2023-02-02T21:10:49;98086.81;;;16.72;59.00
48390;BME280;34643;47.964;7.982;2023-02-02T21:15:50;98081.66;;;16.71;59.31
48390;BME280;34643;47.964;7.982;2023-02-02T21:20:50;98086.13;;;16.69;59.33
48390;BME280;34643;47.964;7.982;2023-02-02T21:25:50;98077.63;;;16.65;59.54
48390;BME280;34643;47.964;7.982;2023-02-02T21:30:50;98083.66;;;16.66;59.76
48390;BME280;34643;47.964;7.982;2023-02-02T21:35:51;98090.59;;;16.67;60.10
48390;BME280;34643;47.964;7.982;2023-02-02T21:40:52;98080.00;;;16.70;59.42
48390;BME280;34643;47.964;7.982;2023-02-02T21:45:53;98076.00;;;16.63;59.41
48390;BME280;34643;47.964;7.982;2023-02-02T21:50:56;98078.03;;;16.58;59.35
48390;BME280;34643;47.964;7.982;2023-02-02T21:55:57;98065.97;;;16.55;59.30
48390;BME280;34643;47.964;7.982;2023-02-02T22:01:01;98067.59;;;16.58;59.35
48390;BME280;34643;47.964;7.982;2023-02-02T22:06:30;98077.00;;;16.60;59.29
48390;BME280;34643;47.964;7.982;2023-02-02T22:11:35;98076.31;;;16.57;59.38
48390;BME280;34643;47.964;7.982;2023-02-02T22:16:36;98076.47;;;16.53;59.51
48390;BME280;34643;47.964;7.982;2023-02-02T22:21:38;98090.59;;;16.49;59.47
48390;BME280;34643;47.964;7.982;2023-02-02T22:26:39;98097.09;;;16.58;59.31
48390;BME280;34643;47.964;7.982;2023-02-02T22:31:39;98102.53;;;16.53;59.22
48390;BME280;34643;47.964;7.982;2023-02-02T22:36:39;98105.13;;;16.53;59.28
48390;BME280;34643;47.964;7.982;2023-02-02T22:41:40;98114.50;;;16.58;59.22
48390;BME280;34643;47.964;7.982;2023-02-02T22:46:40;98113.56;;;16.59;59.17
48390;BME280;34643;47.964;7.982;2023-02-02T22:51:40;98122.47;;;16.54;59.00
48390;BME280;34643;47.964;7.982;2023-02-02T22:56:41;98123.31;;;16.55;59.19
48390;BME280;34643;47.964;7.982;2023-02-02T23:01:41;98131.97;;;16.56;58.98
48390;BME280;34643;47.964;7.982;2023-02-02T23:06:41;98117.25;;;16.54;59.02
48390;BME280;34643;47.964;7.982;2023-02-02T23:11:42;98116.44;;;16.54;58.95
48390;BME280;34643;47.964;7.982;2023-02-02T23:16:42;98110.28;;;16.55;58.96
48390;BME280;34643;47.964;7.982;2023-02-02T23:21:43;98126.94;;;16.52;58.96
48390;BME280;34643;47.964;7.982;2023-02-02T23:26:43;98120.09;;;16.50;58.98
48390;BME280;34643;47.964;7.982;2023-02-02T23:31:43;98121.84;;;16.49;58.77
48390;BME280;34643;47.964;7.982;2023-02-02T23:36:44;98127.06;;;16.49;58.71
48390;BME280;34643;47.964;7.982;2023-02-02T23:41:44;98119.25;;;16.49;58.78
48390;BME280;34643;47.964;7.982;2023-02-02T23:46:44;98121.72;;;16.52;58.54
48390;BME280;34643;47.964;7.982;2023-02-02T23:51:45;98115.63;;;16.52;58.44
48390;BME280;34643;47.964;7.982;2023-02-02T23:56:45;98117.41;;;16.51;58.69
